sensor_id;sensor_type;location;lat;lon;timestamp;temperature;humidity
13223;DHT22;6676;45.192;5.722;2023-07-13T00:02:43;23.00;99.90
13223;DHT22;6676;45.192;5.722;2023-07-13T00:08:14;22.90;99.90
13223;DHT22;6676;45.192;5.722;2023-07-13T00:11:05;22.90;99.90
13223;DHT22;6676;45.192;5.722;2023-07-13T00:13:57;22.80;99.90
13223;DHT22;6676;45.192;5.722;2023-07-13T00:16:51;22.80;99.90
13223;DHT22;6676;45.192;5.722;2023-07-13T00:19:42;22.90;99.90
13223;DHT22;6676;45.192;5.722;2023-07-13T00:22:34;23.00;99.90
13223;DHT22;6676;45.192;5.722;2023-07-13T00:25:25;23.10;99.90
13223;DHT22;6676;45.192;5.722;2023-07-13T00:28:19;23.20;99.90
13223;DHT22;6676;45.192;5.722;2023-07-13T00:31:13;23.20;99.90
13223;DHT22;6676;45.192;5.722;2023-07-13T00:34:05;23.20;99.90
13223;DHT22;6676;45.192;5.722;2023-07-13T00:36:55;23.20;99.90
13223;DHT22;6676;45.192;5.722;2023-07-13T00:39:47;23.10;99.90
13223;DHT22;6676;45.192;5.722;2023-07-13T00:42:38;23.10;99.90
13223;DHT22;6676;45.192;5.722;2023-07-13T00:49:01;23.00;99.90
13223;DHT22;6676;45.192;5.722;2023-07-13T00:51:55;23.00;99.90
13223;DHT22;6676;45.192;5.722;2023-07-13T00:54:47;23.10;99.90
13223;DHT22;6676;45.192;5.722;2023-07-13T00:57:39;23.10;99.90
13223;DHT22;6676;45.192;5.722;2023-07-13T01:03:09;23.20;99.90
13223;DHT22;6676;45.192;5.722;2023-07-13T01:06:00;23.10;99.90
13223;DHT22;6676;45.192;5.722;2023-07-13T01:08:52;23.10;99.90
13223;DHT22;6676;45.192;5.722;2023-07-13T01:11:43;23.00;99.90
13223;DHT22;6676;45.192;5.722;2023-07-13T01:14:35;23.00;99.90
13223;DHT22;6676;45.192;5.722;2023-07-13T01:17:26;23.00;99.90
13223;DHT22;6676;45.192;5.722;2023-07-13T01:20:18;23.00;99.90
13223;DHT22;6676;45.192;5.722;2023-07-13T01:23:11;23.00;99.90
13223;DHT22;6676;45.192;5.722;2023-07-13T01:26:03;23.00;99.90
13223;DHT22;6676;45.192;5.722;2023-07-13T01:28:54;23.00;99.90
13223;DHT22;6676;45.192;5.722;2023-07-13T01:31:46;23.00;99.90
13223;DHT22;6676;45.192;5.722;2023-07-13T01:34:39;22.80;99.90
13223;DHT22;6676;45.192;5.722;2023-07-13T01:37:32;22.80;99.90
13223;DHT22;6676;45.192;5.722;2023-07-13T01:40:25;22.90;99.90
13223;DHT22;6676;45.192;5.722;2023-07-13T01:43:17;22.80;99.90
13223;DHT22;6676;45.192;5.722;2023-07-13T01:48:48;22.80;99.90
13223;DHT22;6676;45.192;5.722;2023-07-13T01:54:18;22.70;99.90
13223;DHT22;6676;45.192;5.722;2023-07-13T01:57:09;22.60;99.90
13223;DHT22;6676;45.192;5.722;2023-07-13T02:00:00;22.50;99.90
13223;DHT22;6676;45.192;5.722;2023-07-13T02:05:31;22.50;99.90
13223;DHT22;6676;45.192;5.722;2023-07-13T02:08:22;22.50;99.90
13223;DHT22;6676;45.192;5.722;2023-07-13T02:13:52;22.40;99.90
13223;DHT22;6676;45.192;5.722;2023-07-13T02:16:43;22.30;99.90
13223;DHT22;6676;45.192;5.722;2023-07-13T02:19:34;22.20;99.90
13223;DHT22;6676;45.192;5.722;2023-07-13T02:22:26;22.10;99.90
13223;DHT22;6676;45.192;5.722;2023-07-13T02:25:18;22.10;99.90
13223;DHT22;6676;45.192;5.722;2023-07-13T02:28:10;22.00;99.90
13223;DHT22;6676;45.192;5.722;2023-07-13T02:31:06;21.90;99.90
13223;DHT22;6676;45.192;5.722;2023-07-13T02:33:58;21.90;99.90
13223;DHT22;6676;45.192;5.722;2023-07-13T02:39:28;21.90;99.90
13223;DHT22;6676;45.192;5.722;2023-07-13T02:42:21;21.90;99.90
13223;DHT22;6676;45.192;5.722;2023-07-13T02:45:12;21.80;99.90
13223;DHT22;6676;45.192;5.722;2023-07-13T02:48:04;21.80;99.90
13223;DHT22;6676;45.192;5.722;2023-07-13T02:50:56;21.80;99.90
13223;DHT22;6676;45.192;5.722;2023-07-13T02:53:47;21.70;99.90
13223;DHT22;6676;45.192;5.722;2023-07-13T02:59:21;21.50;99.90
13223;DHT22;6676;45.192;5.722;2023-07-13T03:02:13;21.50;99.90
13223;DHT22;6676;45.192;5.722;2023-07-13T03:05:06;21.50;99.90
13223;DHT22;6676;45.192;5.722;2023-07-13T03:07:58;21.50;99.90
13223;DHT22;6676;45.192;5.722;2023-07-13T03:10:59;21.50;99.90
13223;DHT22;6676;45.192;5.722;2023-07-13T03:13:51;21.50;99.90
13223;DHT22;6676;45.192;5.722;2023-07-13T03:16:43;21.50;99.90
13223;DHT22;6676;45.192;5.722;2023-07-13T03:19:35;21.50;99.90
13223;DHT22;6676;45.192;5.722;2023-07-13T03:22:26;21.50;99.90
13223;DHT22;6676;45.192;5.722;2023-07-13T03:25:17;21.50;99.90
13223;DHT22;6676;45.192;5.722;2023-07-13T03:28:09;21.50;99.90
13223;DHT22;6676;45.192;5.722;2023-07-13T03:33:41;21.20;99.90
13223;DHT22;6676;45.192;5.722;2023-07-13T03:36:33;21.20;99.90
13223;DHT22;6676;45.192;5.722;2023-07-13T03:39:26;21.30;99.90
13223;DHT22;6676;45.192;5.722;2023-07-13T03:42:18;21.20;99.90
13223;DHT22;6676;45.192;5.722;2023-07-13T03:45:10;21.30;99.90
13223;DHT22;6676;45.192;5.722;2023-07-13T03:48:01;21.40;99.90
13223;DHT22;6676;45.192;5.722;2023-07-13T03:53:31;21.40;99.90
13223;DHT22;6676;45.192;5.722;2023-07-13T03:59:02;21.40;99.90
13223;DHT22;6676;45.192;5.722;2023-07-13T04:01:54;21.40;99.90
13223;DHT22;6676;45.192;5.722;2023-07-13T04:04:45;21.40;99.90
13223;DHT22;6676;45.192;5.722;2023-07-13T04:07:36;21.40;99.90
13223;DHT22;6676;45.192;5.722;2023-07-13T04:13:10;21.50;99.90
13223;DHT22;6676;45.192;5.722;2023-07-13T04:16:02;21.40;99.90
13223;DHT22;6676;45.192;5.722;2023-07-13T04:18:53;21.50;99.90
13223;DHT22;6676;45.192;5.722;2023-07-13T04:21:46;21.50;99.90
13223;DHT22;6676;45.192;5.722;2023-07-13T04:24:38;21.50;99.90
13223;DHT22;6676;45.192;5.722;2023-07-13T04:27:29;21.50;99.90
13223;DHT22;6676;45.192;5.722;2023-07-13T04:30:20;21.40;99.90
13223;DHT22;6676;45.192;5.722;2023-07-13T04:35:51;21.40;99.90
13223;DHT22;6676;45.192;5.722;2023-07-13T04:41:24;21.20;99.90
13223;DHT22;6676;45.192;5.722;2023-07-13T04:44:16;21.00;99.90
13223;DHT22;6676;45.192;5.722;2023-07-13T04:47:07;20.90;99.90
13223;DHT22;6676;45.192;5.722;2023-07-13T04:49:58;20.80;99.90
13223;DHT22;6676;45.192;5.722;2023-07-13T04:52:50;20.70;99.90
13223;DHT22;6676;45.192;5.722;2023-07-13T04:55:42;20.70;99.90
13223;DHT22;6676;45.192;5.722;2023-07-13T04:58:34;20.60;99.90
13223;DHT22;6676;45.192;5.722;2023-07-13T05:01:26;20.60;99.90
13223;DHT22;6676;45.192;5.722;2023-07-13T05:04:17;20.60;99.90
13223;DHT22;6676;45.192;5.722;2023-07-13T05:07:09;20.60;99.90
13223;DHT22;6676;45.192;5.722;2023-07-13T05:10:01;20.50;99.90
13223;DHT22;6676;45.192;5.722;2023-07-13T05:12:53;20.50;99.90
13223;DHT22;6676;45.192;5.722;2023-07-13T05:18:28;20.40;99.90
13223;DHT22;6676;45.192;5.722;2023-07-13T05:21:20;20.40;99.90
13223;DHT22;6676;45.192;5.722;2023-07-13T05:26:49;20.30;99.90
13223;DHT22;6676;45.192;5.722;2023-07-13T05:29:40;20.30;99.90
13223;DHT22;6676;45.192;5.722;2023-07-13T05:32:32;20.20;99.90
13223;DHT22;6676;45.192;5.722;2023-07-13T05:35:24;20.20;99.90
13223;DHT22;6676;45.192;5.722;2023-07-13T05:38:15;20.20;99.90
13223;DHT22;6676;45.192;5.722;2023-07-13T05:43:46;20.10;99.90
13223;DHT22;6676;45.192;5.722;2023-07-13T05:46:37;20.10;99.90
13223;DHT22;6676;45.192;5.722;2023-07-13T05:49:29;20.10;99.90
13223;DHT22;6676;45.192;5.722;2023-07-13T05:52:20;20.10;99.90
13223;DHT22;6676;45.192;5.722;2023-07-13T05:55:11;20.10;99.90
13223;DHT22;6676;45.192;5.722;2023-07-13T05:58:03;20.00;99.90
13223;DHT22;6676;45.192;5.722;2023-07-13T06:01:02;19.90;99.90
13223;DHT22;6676;45.192;5.722;2023-07-13T06:03:54;19.80;99.90
13223;DHT22;6676;45.192;5.722;2023-07-13T06:06:46;19.90;99.90
13223;DHT22;6676;45.192;5.722;2023-07-13T06:09:37;19.90;99.90
13223;DHT22;6676;45.192;5.722;2023-07-13T06:15:09;19.90;99.90
13223;DHT22;6676;45.192;5.722;2023-07-13T06:18:00;19.80;99.90
13223;DHT22;6676;45.192;5.722;2023-07-13T06:20:52;19.80;99.90
13223;DHT22;6676;45.192;5.722;2023-07-13T06:23:44;19.80;99.90
13223;DHT22;6676;45.192;5.722;2023-07-13T06:29:16;19.80;99.90
13223;DHT22;6676;45.192;5.722;2023-07-13T06:32:09;19.80;99.90
13223;DHT22;6676;45.192;5.722;2023-07-13T06:35:01;19.80;99.90
13223;DHT22;6676;45.192;5.722;2023-07-13T06:37:52;19.90;99.90
13223;DHT22;6676;45.192;5.722;2023-07-13T06:43:22;19.90;99.90
13223;DHT22;6676;45.192;5.722;2023-07-13T06:48:54;19.90;99.90
13223;DHT22;6676;45.192;5.722;2023-07-13T06:54:24;20.30;99.90
13223;DHT22;6676;45.192;5.722;2023-07-13T06:57:15;20.50;99.90
13223;DHT22;6676;45.192;5.722;2023-07-13T07:02:52;20.50;99.90
13223;DHT22;6676;45.192;5.722;2023-07-13T07:05:44;20.60;99.90
13223;DHT22;6676;45.192;5.722;2023-07-13T07:08:35;20.80;99.90
13223;DHT22;6676;45.192;5.722;2023-07-13T07:11:27;20.90;99.90
13223;DHT22;6676;45.192;5.722;2023-07-13T07:14:19;21.00;99.90
13223;DHT22;6676;45.192;5.722;2023-07-13T07:17:10;21.10;99.90
13223;DHT22;6676;45.192;5.722;2023-07-13T07:20:01;21.10;99.90
13223;DHT22;6676;45.192;5.722;2023-07-13T07:22:54;21.20;99.90
13223;DHT22;6676;45.192;5.722;2023-07-13T07:25:45;21.20;99.90
13223;DHT22;6676;45.192;5.722;2023-07-13T07:28:37;21.30;99.90
13223;DHT22;6676;45.192;5.722;2023-07-13T07:31:30;21.40;99.90
13223;DHT22;6676;45.192;5.722;2023-07-13T07:34:23;21.50;99.90
13223;DHT22;6676;45.192;5.722;2023-07-13T07:37:15;21.60;99.90
13223;DHT22;6676;45.192;5.722;2023-07-13T07:40:09;21.70;99.90
13223;DHT22;6676;45.192;5.722;2023-07-13T07:43:02;21.70;99.90
13223;DHT22;6676;45.192;5.722;2023-07-13T07:48:33;21.80;99.90
13223;DHT22;6676;45.192;5.722;2023-07-13T07:51:25;21.80;99.90
13223;DHT22;6676;45.192;5.722;2023-07-13T07:54:17;21.70;99.90
13223;DHT22;6676;45.192;5.722;2023-07-13T07:57:10;21.70;99.90
13223;DHT22;6676;45.192;5.722;2023-07-13T08:00:02;21.60;99.90
13223;DHT22;6676;45.192;5.722;2023-07-13T08:02:57;21.60;99.90
13223;DHT22;6676;45.192;5.722;2023-07-13T08:05:52;21.50;99.90
13223;DHT22;6676;45.192;5.722;2023-07-13T08:08:45;21.50;99.90
13223;DHT22;6676;45.192;5.722;2023-07-13T08:11:36;21.50;99.90
13223;DHT22;6676;45.192;5.722;2023-07-13T08:14:29;21.40;99.90
13223;DHT22;6676;45.192;5.722;2023-07-13T08:20:00;21.70;99.90
13223;DHT22;6676;45.192;5.722;2023-07-13T08:25:31;21.90;99.90
13223;DHT22;6676;45.192;5.722;2023-07-13T08:28:22;22.00;99.90
13223;DHT22;6676;45.192;5.722;2023-07-13T08:31:13;22.00;99.90
13223;DHT22;6676;45.192;5.722;2023-07-13T08:34:05;22.00;99.90
13223;DHT22;6676;45.192;5.722;2023-07-13T08:36:57;22.00;99.90
13223;DHT22;6676;45.192;5.722;2023-07-13T08:39:48;21.90;99.90
13223;DHT22;6676;45.192;5.722;2023-07-13T08:48:24;21.90;99.90
13223;DHT22;6676;45.192;5.722;2023-07-13T08:53:59;21.70;99.90
13223;DHT22;6676;45.192;5.722;2023-07-13T08:56:51;21.90;99.90
13223;DHT22;6676;45.192;5.722;2023-07-13T08:59:44;22.00;99.90
13223;DHT22;6676;45.192;5.722;2023-07-13T09:05:17;22.00;99.90
13223;DHT22;6676;45.192;5.722;2023-07-13T09:08:18;22.00;99.90
13223;DHT22;6676;45.192;5.722;2023-07-13T09:11:13;22.10;99.90
13223;DHT22;6676;45.192;5.722;2023-07-13T09:14:19;22.30;99.90
13223;DHT22;6676;45.192;5.722;2023-07-13T09:19:41;22.20;99.90
13223;DHT22;6676;45.192;5.722;2023-07-13T09:22:35;22.20;99.90
13223;DHT22;6676;45.192;5.722;2023-07-13T09:25:30;22.30;99.90
13223;DHT22;6676;45.192;5.722;2023-07-13T09:28:25;22.50;99.90
13223;DHT22;6676;45.192;5.722;2023-07-13T09:33:56;22.60;99.90
13223;DHT22;6676;45.192;5.722;2023-07-13T09:36:48;22.60;99.90
13223;DHT22;6676;45.192;5.722;2023-07-13T09:39:40;22.70;99.90
13223;DHT22;6676;45.192;5.722;2023-07-13T09:42:33;22.90;99.90
13223;DHT22;6676;45.192;5.722;2023-07-13T09:45:29;22.90;99.90
13223;DHT22;6676;45.192;5.722;2023-07-13T09:48:21;23.00;99.90
13223;DHT22;6676;45.192;5.722;2023-07-13T09:53:55;23.10;99.90
13223;DHT22;6676;45.192;5.722;2023-07-13T09:56:46;23.10;99.90
13223;DHT22;6676;45.192;5.722;2023-07-13T10:02:27;23.20;99.90
13223;DHT22;6676;45.192;5.722;2023-07-13T10:05:19;23.20;99.90
13223;DHT22;6676;45.192;5.722;2023-07-13T10:08:21;23.30;99.90
13223;DHT22;6676;45.192;5.722;2023-07-13T10:13:54;23.40;99.90
13223;DHT22;6676;45.192;5.722;2023-07-13T10:19:27;23.50;99.90
13223;DHT22;6676;45.192;5.722;2023-07-13T10:22:24;23.50;99.90
13223;DHT22;6676;45.192;5.722;2023-07-13T10:25:19;23.50;99.90
13223;DHT22;6676;45.192;5.722;2023-07-13T10:30:54;23.60;99.90
13223;DHT22;6676;45.192;5.722;2023-07-13T10:33:47;23.70;99.90
13223;DHT22;6676;45.192;5.722;2023-07-13T10:39:20;23.60;99.90
13223;DHT22;6676;45.192;5.722;2023-07-13T10:42:15;23.60;99.90
13223;DHT22;6676;45.192;5.722;2023-07-13T10:45:13;23.70;99.90
13223;DHT22;6676;45.192;5.722;2023-07-13T10:48:06;23.90;99.90
13223;DHT22;6676;45.192;5.722;2023-07-13T10:53:44;24.00;99.90
13223;DHT22;6676;45.192;5.722;2023-07-13T10:56:38;24.10;99.90
13223;DHT22;6676;45.192;5.722;2023-07-13T10:59:29;24.10;99.90
13223;DHT22;6676;45.192;5.722;2023-07-13T11:02:27;24.10;99.90
13223;DHT22;6676;45.192;5.722;2023-07-13T11:05:26;24.10;99.90
13223;DHT22;6676;45.192;5.722;2023-07-13T11:08:20;24.10;99.90
13223;DHT22;6676;45.192;5.722;2023-07-13T11:11:37;24.10;99.90
13223;DHT22;6676;45.192;5.722;2023-07-13T11:14:35;24.10;99.90
13223;DHT22;6676;45.192;5.722;2023-07-13T11:17:47;24.30;99.90
13223;DHT22;6676;45.192;5.722;2023-07-13T11:20:40;24.40;99.90
13223;DHT22;6676;45.192;5.722;2023-07-13T11:23:32;24.50;99.90
13223;DHT22;6676;45.192;5.722;2023-07-13T11:26:50;24.40;99.90
13223;DHT22;6676;45.192;5.722;2023-07-13T11:29:37;24.50;99.90
13223;DHT22;6676;45.192;5.722;2023-07-13T11:32:32;24.60;99.90
13223;DHT22;6676;45.192;5.722;2023-07-13T11:35:25;24.50;99.90
13223;DHT22;6676;45.192;5.722;2023-07-13T11:38:19;24.70;99.90
13223;DHT22;6676;45.192;5.722;2023-07-13T11:44:01;24.70;99.90
13223;DHT22;6676;45.192;5.722;2023-07-13T11:46:50;24.80;99.90
13223;DHT22;6676;45.192;5.722;2023-07-13T11:49:45;24.80;99.90
13223;DHT22;6676;45.192;5.722;2023-07-13T11:52:38;24.90;99.90
13223;DHT22;6676;45.192;5.722;2023-07-13T11:55:30;24.80;99.90
13223;DHT22;6676;45.192;5.722;2023-07-13T11:58:24;24.90;99.90
13223;DHT22;6676;45.192;5.722;2023-07-13T12:04:00;25.00;99.90
13223;DHT22;6676;45.192;5.722;2023-07-13T12:07:04;25.10;99.90
13223;DHT22;6676;45.192;5.722;2023-07-13T12:10:00;24.90;99.90
13223;DHT22;6676;45.192;5.722;2023-07-13T12:12:55;25.10;99.90
13223;DHT22;6676;45.192;5.722;2023-07-13T12:18:29;25.10;99.90
13223;DHT22;6676;45.192;5.722;2023-07-13T12:21:24;25.30;99.90
13223;DHT22;6676;45.192;5.722;2023-07-13T12:24:16;25.30;99.90
13223;DHT22;6676;45.192;5.722;2023-07-13T12:29:51;25.30;99.90
13223;DHT22;6676;45.192;5.722;2023-07-13T12:32:44;25.40;99.90
13223;DHT22;6676;45.192;5.722;2023-07-13T12:35:40;25.40;99.90
13223;DHT22;6676;45.192;5.722;2023-07-13T12:38:34;25.50;99.90
13223;DHT22;6676;45.192;5.722;2023-07-13T12:41:25;25.50;99.90
13223;DHT22;6676;45.192;5.722;2023-07-13T12:44:18;25.60;99.90
13223;DHT22;6676;45.192;5.722;2023-07-13T12:47:13;25.50;99.90
13223;DHT22;6676;45.192;5.722;2023-07-13T12:50:14;25.70;99.90
13223;DHT22;6676;45.192;5.722;2023-07-13T12:53:09;25.70;99.90
13223;DHT22;6676;45.192;5.722;2023-07-13T12:56:04;25.90;99.90
13223;DHT22;6676;45.192;5.722;2023-07-13T12:58:58;26.00;99.90
13223;DHT22;6676;45.192;5.722;2023-07-13T13:01:50;26.00;99.90
13223;DHT22;6676;45.192;5.722;2023-07-13T13:04:41;25.80;99.90
13223;DHT22;6676;45.192;5.722;2023-07-13T13:07:33;25.90;99.90
13223;DHT22;6676;45.192;5.722;2023-07-13T13:10:25;26.00;99.90
13223;DHT22;6676;45.192;5.722;2023-07-13T13:13:16;26.00;99.90
13223;DHT22;6676;45.192;5.722;2023-07-13T13:16:12;25.90;99.90
13223;DHT22;6676;45.192;5.722;2023-07-13T13:19:12;26.00;99.90
13223;DHT22;6676;45.192;5.722;2023-07-13T13:22:04;26.00;99.90
13223;DHT22;6676;45.192;5.722;2023-07-13T13:24:55;26.00;99.90
13223;DHT22;6676;45.192;5.722;2023-07-13T13:27:46;26.10;99.90
13223;DHT22;6676;45.192;5.722;2023-07-13T13:30:38;26.10;99.90
13223;DHT22;6676;45.192;5.722;2023-07-13T13:33:30;26.10;99.90
13223;DHT22;6676;45.192;5.722;2023-07-13T13:36:24;26.30;99.90
13223;DHT22;6676;45.192;5.722;2023-07-13T13:39:21;26.50;99.90
13223;DHT22;6676;45.192;5.722;2023-07-13T13:42:13;26.50;99.90
13223;DHT22;6676;45.192;5.722;2023-07-13T13:45:07;26.50;99.90
13223;DHT22;6676;45.192;5.722;2023-07-13T13:47:59;26.50;99.90
13223;DHT22;6676;45.192;5.722;2023-07-13T13:50:50;26.60;99.90
13223;DHT22;6676;45.192;5.722;2023-07-13T13:53:42;26.80;99.90
13223;DHT22;6676;45.192;5.722;2023-07-13T13:56:34;26.90;99.90
13223;DHT22;6676;45.192;5.722;2023-07-13T13:59:25;27.20;99.90
13223;DHT22;6676;45.192;5.722;2023-07-13T14:02:24;27.30;99.90
13223;DHT22;6676;45.192;5.722;2023-07-13T14:05:21;27.60;99.90
13223;DHT22;6676;45.192;5.722;2023-07-13T14:08:13;27.60;99.90
13223;DHT22;6676;45.192;5.722;2023-07-13T14:11:05;27.40;99.90
13223;DHT22;6676;45.192;5.722;2023-07-13T14:13:57;27.70;99.90
13223;DHT22;6676;45.192;5.722;2023-07-13T14:16:50;27.70;99.90
13223;DHT22;6676;45.192;5.722;2023-07-13T14:19:44;27.90;99.60
13223;DHT22;6676;45.192;5.722;2023-07-13T14:22:35;28.00;99.60
13223;DHT22;6676;45.192;5.722;2023-07-13T14:25:28;28.10;99.50
13223;DHT22;6676;45.192;5.722;2023-07-13T14:28:22;28.10;99.00
13223;DHT22;6676;45.192;5.722;2023-07-13T14:31:15;28.20;99.70
13223;DHT22;6676;45.192;5.722;2023-07-13T14:34:08;28.50;98.20
13223;DHT22;6676;45.192;5.722;2023-07-13T14:37:00;28.50;97.60
13223;DHT22;6676;45.192;5.722;2023-07-13T14:39:53;28.60;96.60
13223;DHT22;6676;45.192;5.722;2023-07-13T14:42:45;28.60;96.40
13223;DHT22;6676;45.192;5.722;2023-07-13T14:45:43;28.60;95.90
13223;DHT22;6676;45.192;5.722;2023-07-13T14:48:33;28.50;95.90
13223;DHT22;6676;45.192;5.722;2023-07-13T14:51:25;28.70;95.70
13223;DHT22;6676;45.192;5.722;2023-07-13T14:54:17;28.60;95.50
13223;DHT22;6676;45.192;5.722;2023-07-13T14:57:11;28.60;95.80
13223;DHT22;6676;45.192;5.722;2023-07-13T15:00:04;28.90;94.80
13223;DHT22;6676;45.192;5.722;2023-07-13T15:02:58;29.10;94.00
13223;DHT22;6676;45.192;5.722;2023-07-13T15:05:51;29.20;93.30
13223;DHT22;6676;45.192;5.722;2023-07-13T15:08:43;29.40;92.30
13223;DHT22;6676;45.192;5.722;2023-07-13T15:11:34;29.40;92.00
13223;DHT22;6676;45.192;5.722;2023-07-13T15:14:26;29.60;92.10
13223;DHT22;6676;45.192;5.722;2023-07-13T15:17:24;29.70;91.70
13223;DHT22;6676;45.192;5.722;2023-07-13T15:20:19;29.60;91.50
13223;DHT22;6676;45.192;5.722;2023-07-13T15:23:13;29.70;90.60
13223;DHT22;6676;45.192;5.722;2023-07-13T15:26:04;29.90;89.40
13223;DHT22;6676;45.192;5.722;2023-07-13T15:28:56;30.00;88.00
13223;DHT22;6676;45.192;5.722;2023-07-13T15:31:48;30.10;88.60
13223;DHT22;6676;45.192;5.722;2023-07-13T15:34:39;30.10;86.80
13223;DHT22;6676;45.192;5.722;2023-07-13T15:37:31;30.00;85.90
13223;DHT22;6676;45.192;5.722;2023-07-13T15:40:24;30.20;86.10
13223;DHT22;6676;45.192;5.722;2023-07-13T15:43:17;30.50;84.00
13223;DHT22;6676;45.192;5.722;2023-07-13T15:46:09;30.50;83.90
13223;DHT22;6676;45.192;5.722;2023-07-13T15:49:04;30.70;83.00
13223;DHT22;6676;45.192;5.722;2023-07-13T15:51:54;30.70;82.20
13223;DHT22;6676;45.192;5.722;2023-07-13T15:54:46;30.40;82.60
13223;DHT22;6676;45.192;5.722;2023-07-13T15:57:38;30.80;80.80
13223;DHT22;6676;45.192;5.722;2023-07-13T16:00:30;30.70;79.80
13223;DHT22;6676;45.192;5.722;2023-07-13T16:03:22;30.50;79.70
13223;DHT22;6676;45.192;5.722;2023-07-13T16:06:22;30.40;80.50
13223;DHT22;6676;45.192;5.722;2023-07-13T16:09:18;30.30;79.70
13223;DHT22;6676;45.192;5.722;2023-07-13T16:12:11;30.30;78.40
13223;DHT22;6676;45.192;5.722;2023-07-13T16:15:03;30.50;78.00
13223;DHT22;6676;45.192;5.722;2023-07-13T16:17:55;30.20;78.90
13223;DHT22;6676;45.192;5.722;2023-07-13T16:20:46;30.40;78.30
13223;DHT22;6676;45.192;5.722;2023-07-13T16:23:39;30.80;78.40
13223;DHT22;6676;45.192;5.722;2023-07-13T16:26:33;30.90;77.10
13223;DHT22;6676;45.192;5.722;2023-07-13T16:29:31;30.30;78.20
13223;DHT22;6676;45.192;5.722;2023-07-13T16:32:24;30.20;76.80
13223;DHT22;6676;45.192;5.722;2023-07-13T16:35:16;29.60;77.10
13223;DHT22;6676;45.192;5.722;2023-07-13T16:38:14;29.50;77.40
13223;DHT22;6676;45.192;5.722;2023-07-13T16:41:05;29.70;77.30
13223;DHT22;6676;45.192;5.722;2023-07-13T16:43:58;29.90;76.00
13223;DHT22;6676;45.192;5.722;2023-07-13T16:46:52;29.70;76.60
13223;DHT22;6676;45.192;5.722;2023-07-13T16:49:46;29.40;77.00
13223;DHT22;6676;45.192;5.722;2023-07-13T16:52:38;29.70;77.20
13223;DHT22;6676;45.192;5.722;2023-07-13T16:55:30;29.70;75.40
13223;DHT22;6676;45.192;5.722;2023-07-13T16:58:21;29.60;76.20
13223;DHT22;6676;45.192;5.722;2023-07-13T17:01:14;29.90;76.10
13223;DHT22;6676;45.192;5.722;2023-07-13T17:04:09;30.00;75.90
13223;DHT22;6676;45.192;5.722;2023-07-13T17:07:01;29.80;74.30
13223;DHT22;6676;45.192;5.722;2023-07-13T17:09:55;29.80;74.20
13223;DHT22;6676;45.192;5.722;2023-07-13T17:12:46;29.30;75.50
13223;DHT22;6676;45.192;5.722;2023-07-13T17:15:38;29.50;74.80
13223;DHT22;6676;45.192;5.722;2023-07-13T17:18:32;29.40;76.00
13223;DHT22;6676;45.192;5.722;2023-07-13T17:21:26;29.60;75.80
13223;DHT22;6676;45.192;5.722;2023-07-13T17:24:19;29.50;75.10
13223;DHT22;6676;45.192;5.722;2023-07-13T17:27:13;28.90;77.10
13223;DHT22;6676;45.192;5.722;2023-07-13T17:30:08;28.30;79.10
13223;DHT22;6676;45.192;5.722;2023-07-13T17:33:01;28.10;80.90
13223;DHT22;6676;45.192;5.722;2023-07-13T17:35:56;27.80;80.70
13223;DHT22;6676;45.192;5.722;2023-07-13T17:38:48;27.60;82.10
13223;DHT22;6676;45.192;5.722;2023-07-13T17:41:42;27.40;82.80
13223;DHT22;6676;45.192;5.722;2023-07-13T17:44:34;27.20;83.10
13223;DHT22;6676;45.192;5.722;2023-07-13T17:47:26;26.80;84.30
13223;DHT22;6676;45.192;5.722;2023-07-13T17:50:21;26.80;84.40
13223;DHT22;6676;45.192;5.722;2023-07-13T17:55:54;26.60;85.10
13223;DHT22;6676;45.192;5.722;2023-07-13T17:58:45;26.50;85.60
13223;DHT22;6676;45.192;5.722;2023-07-13T18:01:37;26.40;86.10
13223;DHT22;6676;45.192;5.722;2023-07-13T18:04:30;26.70;85.60
13223;DHT22;6676;45.192;5.722;2023-07-13T18:07:22;27.10;84.50
13223;DHT22;6676;45.192;5.722;2023-07-13T18:10:15;27.30;83.10
13223;DHT22;6676;45.192;5.722;2023-07-13T18:13:06;27.50;83.20
13223;DHT22;6676;45.192;5.722;2023-07-13T18:15:58;27.60;82.80
13223;DHT22;6676;45.192;5.722;2023-07-13T18:18:50;27.60;82.30
13223;DHT22;6676;45.192;5.722;2023-07-13T18:24:20;27.60;82.50
13223;DHT22;6676;45.192;5.722;2023-07-13T18:27:11;27.40;82.10
13223;DHT22;6676;45.192;5.722;2023-07-13T18:30:02;26.90;84.50
13223;DHT22;6676;45.192;5.722;2023-07-13T18:35:34;26.10;87.40
13223;DHT22;6676;45.192;5.722;2023-07-13T18:38:27;25.90;87.80
13223;DHT22;6676;45.192;5.722;2023-07-13T18:41:21;25.70;88.40
13223;DHT22;6676;45.192;5.722;2023-07-13T18:44:13;25.50;89.20
13223;DHT22;6676;45.192;5.722;2023-07-13T18:47:04;25.40;89.50
13223;DHT22;6676;45.192;5.722;2023-07-13T18:49:56;25.40;89.70
13223;DHT22;6676;45.192;5.722;2023-07-13T18:55:27;25.30;90.20
13223;DHT22;6676;45.192;5.722;2023-07-13T18:58:18;25.20;89.80
13223;DHT22;6676;45.192;5.722;2023-07-13T19:01:20;25.10;90.00
13223;DHT22;6676;45.192;5.722;2023-07-13T19:04:27;25.00;90.00
13223;DHT22;6676;45.192;5.722;2023-07-13T19:07:19;25.00;90.00
13223;DHT22;6676;45.192;5.722;2023-07-13T19:10:15;25.00;90.00
13223;DHT22;6676;45.192;5.722;2023-07-13T19:13:08;24.90;89.70
13223;DHT22;6676;45.192;5.722;2023-07-13T19:16:00;24.80;90.00
13223;DHT22;6676;45.192;5.722;2023-07-13T19:18:51;24.80;89.80
13223;DHT22;6676;45.192;5.722;2023-07-13T19:21:42;24.80;90.00
13223;DHT22;6676;45.192;5.722;2023-07-13T19:24:35;24.70;90.00
13223;DHT22;6676;45.192;5.722;2023-07-13T19:27:28;24.70;90.20
13223;DHT22;6676;45.192;5.722;2023-07-13T19:30:20;24.60;90.60
13223;DHT22;6676;45.192;5.722;2023-07-13T19:35:52;24.50;91.10
13223;DHT22;6676;45.192;5.722;2023-07-13T19:38:44;24.50;91.10
13223;DHT22;6676;45.192;5.722;2023-07-13T19:44:16;24.40;91.60
13223;DHT22;6676;45.192;5.722;2023-07-13T19:47:11;24.30;92.10
13223;DHT22;6676;45.192;5.722;2023-07-13T19:50:04;24.20;92.50
13223;DHT22;6676;45.192;5.722;2023-07-13T19:55:37;24.20;92.60
13223;DHT22;6676;45.192;5.722;2023-07-13T20:01:09;24.20;92.40
13223;DHT22;6676;45.192;5.722;2023-07-13T20:04:01;24.10;92.40
13223;DHT22;6676;45.192;5.722;2023-07-13T20:09:30;24.10;92.90
13223;DHT22;6676;45.192;5.722;2023-07-13T20:15:07;23.90;93.60
13223;DHT22;6676;45.192;5.722;2023-07-13T20:18:00;23.80;93.50
13223;DHT22;6676;45.192;5.722;2023-07-13T20:20:54;23.80;93.20
13223;DHT22;6676;45.192;5.722;2023-07-13T20:23:45;23.80;93.70
13223;DHT22;6676;45.192;5.722;2023-07-13T20:29:16;23.60;94.60
13223;DHT22;6676;45.192;5.722;2023-07-13T20:34:46;23.40;95.40
13223;DHT22;6676;45.192;5.722;2023-07-13T20:40:19;23.30;95.30
13223;DHT22;6676;45.192;5.722;2023-07-13T20:43:11;23.30;95.40
13223;DHT22;6676;45.192;5.722;2023-07-13T20:48:44;23.30;95.80
13223;DHT22;6676;45.192;5.722;2023-07-13T20:51:46;23.20;95.90
13223;DHT22;6676;45.192;5.722;2023-07-13T20:54:32;23.10;96.10
13223;DHT22;6676;45.192;5.722;2023-07-13T20:57:24;23.10;96.30
13223;DHT22;6676;45.192;5.722;2023-07-13T21:00:17;23.10;96.10
13223;DHT22;6676;45.192;5.722;2023-07-13T21:03:17;23.10;96.40
13223;DHT22;6676;45.192;5.722;2023-07-13T21:06:14;23.00;96.50